Time;durP1;ratioP1;P1;durP2;ratioP2;P2;SDS_P1;SDS_P2;PMS_P1;PMS_P2;Temp;Humidity;BMP_temperature;BMP_pressure;BME280_temperature;BME280_humidity;BME280_pressure;Samples;Min_cycle;Max_cycle;Signal;HPM_P1;HPM_P2
2022/12/20 00:01:12;;;;;;;1.95;1.25;;;;;;;9.59;100.00;101243.78;5016126;28;20478;-65
2022/12/20 00:03:38;;;;;;;1.60;1.50;;;;;;;9.61;100.00;101242.16;5021457;28;20512;-65
2022/12/20 00:06:04;;;;;;;2.90;1.63;;;;;;;9.60;100.00;101248.16;5008948;28;20053;-65
2022/12/20 00:08:30;;;;;;;1.65;1.30;;;;;;;9.61;100.00;101257.69;5009794;28;20113;-64
2022/12/20 00:10:55;;;;;;;2.60;1.45;;;;;;;9.66;100.00;101257.84;5009723;28;20223;-65
2022/12/20 00:13:21;;;;;;;2.35;1.58;;;;;;;9.68;100.00;101268.28;5009782;28;20382;-65
2022/12/20 00:15:46;;;;;;;2.13;1.40;;;;;;;9.69;100.00;101245.06;5011134;28;20029;-64
2022/12/20 00:18:12;;;;;;;1.70;1.40;;;;;;;9.69;100.00;101251.94;5020753;28;20042;-65
2022/12/20 00:20:37;;;;;;;3.20;1.88;;;;;;;9.72;100.00;101254.66;5009698;28;20029;-65
2022/12/20 00:23:02;;;;;;;1.65;1.40;;;;;;;9.73;100.00;101246.09;5009296;28;20061;-65
2022/12/20 00:25:28;;;;;;;1.92;1.50;;;;;;;9.75;100.00;101239.25;5009726;28;20556;-64
2022/12/20 00:27:53;;;;;;;3.25;1.50;;;;;;;9.78;100.00;101241.97;5015031;28;20013;-65
2022/12/20 00:30:19;;;;;;;2.45;1.40;;;;;;;9.77;100.00;101237.59;5028270;28;20017;-65
2022/12/20 00:32:45;;;;;;;2.22;1.63;;;;;;;9.84;100.00;101238.75;5010540;28;20028;-65
2022/12/20 00:35:10;;;;;;;3.55;1.85;;;;;;;9.83;100.00;101232.69;5039707;28;20389;-65
2022/12/20 00:37:36;;;;;;;2.70;1.63;;;;;;;9.85;100.00;101235.34;5027879;28;20060;-64
2022/12/20 00:40:03;;;;;;;2.33;1.52;;;;;;;9.83;100.00;101232.69;5028095;28;20052;-65
2022/12/20 00:42:28;;;;;;;4.00;1.50;;;;;;;9.88;100.00;101229.41;5015730;28;20045;-65
2022/12/20 00:44:53;;;;;;;1.90;1.15;;;;;;;9.88;100.00;101221.63;5027441;28;20063;-64
2022/12/20 00:47:19;;;;;;;3.15;1.60;;;;;;;9.91;100.00;101219.19;5027866;28;20052;-65
2022/12/20 00:49:44;;;;;;;1.63;1.27;;;;;;;9.92;100.00;101208.00;5027543;28;20509;-65
2022/12/20 00:52:09;;;;;;;3.05;1.48;;;;;;;9.89;100.00;101195.84;5028349;28;20021;-65
2022/12/20 00:54:34;;;;;;;1.27;1.20;;;;;;;9.92;100.00;101200.22;5026913;28;20033;-65
2022/12/20 00:57:00;;;;;;;2.58;1.48;;;;;;;9.94;100.00;101208.97;5029460;28;20447;-65
2022/12/20 00:59:25;;;;;;;2.60;1.30;;;;;;;9.94;100.00;101214.13;5039539;28;20024;-65
2022/12/20 01:01:51;;;;;;;4.13;1.55;;;;;;;9.96;100.00;101212.50;5026386;28;20420;-65
2022/12/20 01:04:16;;;;;;;1.77;1.20;;;;;;;9.96;100.00;101212.50;5026839;28;20060;-65
2022/12/20 01:06:42;;;;;;;2.92;1.58;;;;;;;9.98;100.00;101216.03;5026348;28;20028;-65
2022/12/20 01:09:07;;;;;;;3.30;1.75;;;;;;;9.97;100.00;101212.56;5027086;28;20031;-65
2022/12/20 01:11:35;;;;;;;3.33;1.70;;;;;;;9.96;100.00;101204.72;5029142;28;20408;-65
2022/12/20 01:14:12;;;;;;;2.47;1.52;;;;;;;9.90;100.00;101218.31;5036393;28;20021;-64
2022/12/20 01:16:42;;;;;;;2.03;1.40;;;;;;;9.83;100.00;101222.34;5033449;28;20064;-65
2022/12/20 01:19:09;;;;;;;2.80;1.55;;;;;;;9.78;100.00;101234.22;5026870;28;20057;-65
2022/12/20 01:21:35;;;;;;;2.85;2.00;;;;;;;9.73;100.00;101235.75;5027445;28;20091;-64
2022/12/20 01:24:00;;;;;;;2.20;1.55;;;;;;;9.69;100.00;101218.31;5026629;28;20478;-65
2022/12/20 01:26:27;;;;;;;2.80;2.13;;;;;;;9.66;100.00;101215.59;5027324;28;20112;-65
2022/12/20 01:28:56;;;;;;;2.88;1.92;;;;;;;9.57;100.00;101211.78;5024128;28;20025;-65
2022/12/20 01:31:22;;;;;;;4.22;2.28;;;;;;;9.49;100.00;101218.34;5008121;28;20018;-64
2022/12/20 01:33:48;;;;;;;3.70;2.00;;;;;;;9.41;100.00;101227.50;5021489;28;20029;-65
2022/12/20 01:36:17;;;;;;;3.58;2.20;;;;;;;9.34;100.00;101222.03;5033918;28;20033;-65
2022/12/20 01:38:42;;;;;;;2.33;2.10;;;;;;;9.27;100.00;101227.75;5017230;28;20597;-64
2022/12/20 01:41:09;;;;;;;3.20;1.90;;;;;;;9.20;100.00;101218.84;5024159;28;20048;-65
2022/12/20 01:43:51;;;;;;;4.88;2.45;;;;;;;9.14;100.00;101210.81;5016814;28;20053;-65
2022/12/20 01:46:19;;;;;;;5.53;2.55;;;;;;;9.11;100.00;101209.00;5008528;28;20177;-65
2022/12/20 01:48:49;;;;;;;4.50;2.20;;;;;;;9.05;100.00;101202.69;5008582;28;20494;-65
2022/12/20 01:51:16;;;;;;;5.25;2.72;;;;;;;8.98;100.00;101204.97;5007430;28;20046;-65
2022/12/20 01:53:42;;;;;;;5.45;2.78;;;;;;;8.95;100.00;101201.38;5008257;28;20076;-65
2022/12/20 01:56:09;;;;;;;5.22;2.47;;;;;;;8.92;100.00;101191.78;5008313;28;20245;-64
2022/12/20 01:58:36;;;;;;;5.93;3.25;;;;;;;8.88;100.00;101192.47;5008263;28;20022;-65
2022/12/20 02:01:02;;;;;;;2.95;2.08;;;;;;;8.88;100.00;101183.03;5007430;28;20486;-65
2022/12/20 02:03:30;;;;;;;5.38;2.60;;;;;;;8.86;100.00;101182.06;5013768;28;20029;-65
2022/12/20 02:05:55;;;;;;;2.60;2.40;;;;;;;8.85;100.00;101175.09;5014091;28;20105;-65
2022/12/20 02:08:20;;;;;;;4.32;2.60;;;;;;;8.85;100.00;101175.09;5007724;28;20101;-65
2022/12/20 02:11:13;;;;;;;3.95;2.38;;;;;;;8.85;100.00;101175.09;5006734;28;20030;-65
2022/12/20 02:13:59;;;;;;;2.55;2.25;;;;;;;8.84;100.00;101188.84;5007408;28;20058;-65
2022/12/20 02:16:28;;;;;;;3.80;2.60;;;;;;;8.80;100.00;101166.28;5007054;28;20041;-64
2022/12/20 02:19:07;;;;;;;3.30;2.38;;;;;;;8.77;100.00;101167.03;5007629;28;20030;-65
2022/12/20 02:21:41;;;;;;;3.97;2.88;;;;;;;8.76;100.00;101159.22;5008049;28;20018;-65
2022/12/20 02:24:46;;;;;;;3.03;2.28;;;;;;;8.74;100.00;101155.69;5007671;28;20112;-65
2022/12/20 02:27:42;;;;;;;4.03;2.42;;;;;;;8.74;100.00;101135.00;5008405;28;20060;-65
2022/12/20 02:30:13;;;;;;;3.88;2.58;;;;;;;8.74;100.00;101135.00;5026624;28;20087;-65
2022/12/20 02:32:49;;;;;;;3.50;2.00;;;;;;;8.73;100.00;101143.56;5021057;28;20029;-64
2022/12/20 02:35:20;;;;;;;2.92;2.10;;;;;;;8.71;100.00;101140.00;5031363;28;20292;-64
2022/12/20 02:37:56;;;;;;;3.75;2.50;;;;;;;8.74;100.00;101137.59;5014933;28;20025;-64
2022/12/20 02:40:41;;;;;;;3.67;2.05;;;;;;;8.76;100.00;101131.66;5024722;28;20013;-65
2022/12/20 02:45:14;;;;;;;4.05;2.25;;;;;;;8.80;100.00;101130.09;5027321;28;20049;-65
2022/12/20 02:45:57;;;;;;;2.58;2.00;;;;;;;8.82;100.00;101133.63;5023596;28;20105;-65
2022/12/20 02:48:26;;;;;;;3.40;2.00;;;;;;;8.84;100.00;101126.84;5026226;28;20076;-64
2022/12/20 02:50:54;;;;;;;3.15;2.00;;;;;;;8.92;100.00;101126.28;5028133;28;20409;-64
2022/12/20 02:53:21;;;;;;;3.33;2.00;;;;;;;8.95;100.00;101131.59;5029870;28;20037;-64
2022/12/20 02:55:53;;;;;;;2.95;1.67;;;;;;;8.94;100.00;101111.72;5026481;28;20029;-64
2022/12/20 02:58:36;;;;;;;3.70;1.85;;;;;;;8.96;100.00;101120.44;5025335;28;20022;-65
2022/12/20 03:01:08;;;;;;;2.70;1.90;;;;;;;9.01;100.00;101129.28;5008307;28;20026;-65
2022/12/20 03:03:35;;;;;;;2.50;1.65;;;;;;;9.03;100.00;101122.44;5027106;28;20604;-65
2022/12/20 03:06:00;;;;;;;2.60;1.80;;;;;;;9.05;100.00;101105.31;5030146;28;20275;-65
2022/12/20 03:08:26;;;;;;;4.10;2.35;;;;;;;9.07;100.00;101116.59;5029159;28;20030;-65
2022/12/20 03:10:52;;;;;;;2.45;1.65;;;;;;;9.14;100.00;101125.50;5029477;28;20029;-65
2022/12/20 03:13:18;;;;;;;2.70;1.42;;;;;;;9.18;100.00;101123.91;5029141;28;20048;-64
2022/12/20 03:15:44;;;;;;;2.55;1.60;;;;;;;9.21;100.00;101121.50;5030077;28;20021;-64
2022/12/20 03:18:09;;;;;;;1.88;1.65;;;;;;;9.27;100.00;101120.84;5029732;28;20036;-64
2022/12/20 03:20:35;;;;;;;2.75;1.63;;;;;;;9.33;100.00;101122.00;5028326;28;20582;-64
2022/12/20 03:23:00;;;;;;;2.08;1.73;;;;;;;9.36;100.00;101127.28;5027852;28;20025;-65
2022/12/20 03:25:25;;;;;;;1.85;1.33;;;;;;;9.40;100.00;101106.72;5028249;28;20079;-65
2022/12/20 03:27:51;;;;;;;1.75;1.40;;;;;;;9.44;100.00;101113.78;5027308;28;20064;-65
2022/12/20 03:30:16;;;;;;;2.65;1.75;;;;;;;9.46;100.00;101107.00;5028818;28;20021;-65
2022/12/20 03:32:42;;;;;;;4.43;1.50;;;;;;;9.50;100.00;101101.09;5011378;28;20076;-65
2022/12/20 03:35:07;;;;;;;2.38;1.65;;;;;;;9.52;100.00;101107.22;5019309;28;20430;-65
2022/12/20 03:37:33;;;;;;;3.38;1.85;;;;;;;9.57;100.00;101105.69;5016264;28;20033;-65
2022/12/20 03:39:58;;;;;;;5.30;1.67;;;;;;;9.61;100.00;101104.13;5037172;28;20030;-64
2022/12/20 03:42:23;;;;;;;1.60;1.35;;;;;;;9.62;100.00;101111.06;5029250;28;20021;-65
2022/12/20 03:44:49;;;;;;;6.22;2.05;;;;;;;9.67;100.00;101119.00;5029847;28;20029;-65
2022/12/20 03:47:14;;;;;;;3.47;1.70;;;;;;;9.71;100.00;101114.00;5030599;28;20037;-64
2022/12/20 03:49:39;;;;;;;1.98;1.63;;;;;;;9.72;100.00;101123.56;5028898;28;20497;-65
2022/12/20 03:52:05;;;;;;;5.55;1.38;;;;;;;9.80;100.00;101123.88;5020702;28;20276;-65
2022/12/20 03:54:30;;;;;;;2.80;1.90;;;;;;;9.81;100.00;101120.44;5009799;28;20036;-65
2022/12/20 03:56:55;;;;;;;1.98;1.40;;;;;;;9.83;100.00;101124.00;5017710;28;20470;-64
2022/12/20 03:59:21;;;;;;;3.35;1.50;;;;;;;9.85;100.00;101132.69;5015416;28;20036;-65
2022/12/20 04:01:46;;;;;;;2.63;1.40;;;;;;;9.87;100.00;101118.94;5010296;28;20133;-65
2022/12/20 04:04:13;;;;;;;2.40;1.40;;;;;;;9.89;100.00;101110.41;5010821;28;20100;-65
2022/12/20 04:06:39;;;;;;;2.53;1.80;;;;;;;9.91;100.00;101106.16;5009580;28;20054;-65
2022/12/20 04:09:04;;;;;;;2.65;1.48;;;;;;;9.95;100.00;101112.34;5010444;28;20060;-65
2022/12/20 04:11:30;;;;;;;3.92;1.38;;;;;;;9.99;100.00;101102.97;5009435;28;20041;-64
2022/12/20 04:13:55;;;;;;;2.20;1.63;;;;;;;9.99;100.00;101111.63;5009792;28;20029;-64
2022/12/20 04:16:23;;;;;;;2.00;1.75;;;;;;;9.99;100.00;101114.22;5009637;28;20125;-65
2022/12/20 04:18:48;;;;;;;4.13;1.60;;;;;;;10.00;100.00;101100.44;5010097;28;20505;-65
2022/12/20 04:21:14;;;;;;;4.40;1.70;;;;;;;9.99;100.00;101114.22;5009908;28;20020;-65
2022/12/20 04:23:41;;;;;;;2.95;1.42;;;;;;;9.99;100.00;101109.03;5010669;28;20698;-65
2022/12/20 04:26:09;;;;;;;2.45;1.63;;;;;;;10.02;100.00;101113.47;5009889;28;20014;-65
2022/12/20 04:28:35;;;;;;;2.20;1.30;;;;;;;10.04;100.00;101102.34;5020815;28;20091;-64
2022/12/20 04:31:01;;;;;;;2.22;1.60;;;;;;;10.05;100.00;101104.13;5015715;28;20133;-65
2022/12/20 04:33:27;;;;;;;1.75;1.38;;;;;;;10.09;100.00;101097.34;5030029;28;20448;-65
2022/12/20 04:35:53;;;;;;;2.95;1.27;;;;;;;10.11;100.00;101100.00;5025704;28;20113;-65
2022/12/20 04:38:20;;;;;;;3.33;1.40;;;;;;;10.11;100.00;101094.81;5026698;28;20069;-65
2022/12/20 04:40:48;;;;;;;2.28;1.58;;;;;;;10.10;100.00;101091.34;5028376;28;20115;-65
2022/12/20 04:43:14;;;;;;;2.60;1.40;;;;;;;10.08;100.00;101101.63;5027904;28;20021;-65
2022/12/20 04:45:39;;;;;;;1.60;1.40;;;;;;;10.09;100.00;101095.63;5026749;28;20077;-65
2022/12/20 04:48:05;;;;;;;1.80;1.40;;;;;;;10.08;100.00;101095.56;5026801;28;20049;-65
2022/12/20 04:50:30;;;;;;;4.07;1.40;;;;;;;10.11;100.00;101102.59;5028142;28;20041;-65
2022/12/20 04:55:40;;;;;;;3.92;1.80;;;;;;;10.15;100.00;101092.38;5027935;28;20072;-65
2022/12/20 04:58:06;;;;;;;3.33;1.40;;;;;;;10.17;100.00;101097.63;5010032;28;20076;-65
2022/12/20 05:00:32;;;;;;;3.03;1.60;;;;;;;10.17;100.00;101095.94;5019683;28;20386;-64
2022/12/20 05:02:58;;;;;;;2.72;1.80;;;;;;;10.14;100.00;101101.00;5010310;28;20100;-65
2022/12/20 05:05:24;;;;;;;2.00;1.30;;;;;;;10.15;100.00;101084.63;5008450;28;20486;-65
2022/12/20 05:07:50;;;;;;;2.05;1.85;;;;;;;10.14;100.00;101084.56;5008079;28;20092;-65
2022/12/20 05:10:16;;;;;;;2.90;1.70;;;;;;;10.20;100.00;101077.91;5008657;28;20030;-65
2022/12/20 05:12:41;;;;;;;4.50;2.15;;;;;;;10.21;100.00;101069.34;5007903;28;20029;-65
2022/12/20 05:15:07;;;;;;;1.85;1.27;;;;;;;10.23;100.00;101071.97;5008383;28;20501;-65
2022/12/20 05:17:33;;;;;;;2.42;1.48;;;;;;;10.24;100.00;101071.13;5008102;28;20037;-65
2022/12/20 05:19:58;;;;;;;1.52;1.42;;;;;;;10.23;100.00;101071.09;5008489;28;20061;-65
2022/12/20 05:27:53;;;;;;;2.63;1.48;;;;;;;10.20;100.00;101045.94;5023165;28;20095;-65
2022/12/20 05:30:19;;;;;;;3.13;1.20;;;;;;;10.20;100.00;101040.75;5026228;28;20025;-66
2022/12/20 05:32:44;;;;;;;3.00;1.40;;;;;;;10.18;100.00;101052.78;5007851;28;20068;-65
2022/12/20 05:35:09;;;;;;;2.40;1.35;;;;;;;10.18;100.00;101047.63;5039598;28;20048;-65
2022/12/20 05:37:35;;;;;;;2.95;1.58;;;;;;;10.17;100.00;101045.84;5008526;28;20137;-65
2022/12/20 05:40:00;;;;;;;1.60;1.50;;;;;;;10.17;100.00;101040.66;5007774;28;20496;-66
2022/12/20 05:42:25;;;;;;;2.35;1.52;;;;;;;10.18;100.00;101045.88;5016339;28;20036;-65
2022/12/20 05:44:51;;;;;;;2.83;1.77;;;;;;;10.15;100.00;101029.34;5020180;28;20467;-65
2022/12/20 05:47:16;;;;;;;3.42;1.60;;;;;;;10.13;100.00;101038.78;5020783;28;20018;-65
2022/12/20 05:49:41;;;;;;;2.28;1.67;;;;;;;10.11;100.00;101046.47;5020490;28;20087;-65
2022/12/20 05:52:06;;;;;;;2.63;1.58;;;;;;;10.08;100.00;101036.00;5011290;28;20030;-65
2022/12/20 05:54:32;;;;;;;2.05;1.40;;;;;;;10.07;100.00;101036.84;5021483;28;20079;-65
2022/12/20 05:56:57;;;;;;;2.40;1.50;;;;;;;10.04;100.00;101031.53;5034883;28;20392;-65
2022/12/20 05:59:22;;;;;;;3.03;1.33;;;;;;;10.02;100.00;101026.31;5026755;28;20037;-65
2022/12/20 06:01:48;;;;;;;2.17;1.27;;;;;;;10.02;100.00;101018.53;5031893;28;20025;-65
2022/12/20 06:04:13;;;;;;;1.40;1.30;;;;;;;10.01;100.00;101003.84;5031514;28;20029;-65
2022/12/20 06:06:38;;;;;;;2.38;1.17;;;;;;;10.01;100.00;101013.31;5027724;28;20028;-65
2022/12/20 06:09:04;;;;;;;1.35;0.93;;;;;;;10.00;100.00;101011.56;5012008;28;20057;-65
2022/12/20 06:11:29;;;;;;;0.95;0.85;;;;;;;10.00;100.00;101001.19;5007329;28;20030;-65
2022/12/20 06:13:54;;;;;;;1.85;1.40;;;;;;;9.98;100.00;100993.38;5007227;28;20076;-65
2022/12/20 06:16:22;;;;;;;2.78;1.35;;;;;;;9.95;100.00;100986.38;5007593;28;20026;-65
2022/12/20 06:18:47;;;;;;;2.30;1.40;;;;;;;9.95;100.00;100982.88;5007515;28;20022;-65
2022/12/20 06:21:13;;;;;;;4.13;1.27;;;;;;;9.93;100.00;100984.56;5007483;28;20018;-65
2022/12/20 06:23:38;;;;;;;2.85;1.40;;;;;;;9.96;100.00;100987.25;5009061;28;20555;-65
2022/12/20 06:26:07;;;;;;;2.13;1.45;;;;;;;9.92;100.00;100987.97;5018535;28;20561;-65
2022/12/20 06:28:33;;;;;;;1.73;1.30;;;;;;;9.92;100.00;100995.72;5032222;28;20614;-65
2022/12/20 06:30:58;;;;;;;2.15;1.23;;;;;;;9.91;100.00;100996.56;5030307;28;20033;-65
2022/12/20 06:33:24;;;;;;;1.95;1.23;;;;;;;9.88;100.00;100992.16;5036887;28;20068;-65
2022/12/20 06:35:50;;;;;;;3.72;1.60;;;;;;;9.87;100.00;100989.50;5035319;28;20024;-65
2022/12/20 06:38:15;;;;;;;2.40;1.73;;;;;;;9.84;100.00;100992.84;5030723;28;20101;-65
2022/12/20 06:40:40;;;;;;;2.72;1.30;;;;;;;9.81;100.00;101001.41;5027254;28;20449;-65
2022/12/20 06:43:07;;;;;;;4.40;1.40;;;;;;;9.80;100.00;100998.75;5033260;28;20025;-65
2022/12/20 06:45:32;;;;;;;2.60;1.10;;;;;;;9.78;100.00;100997.81;5028956;28;20470;-65
2022/12/20 06:47:58;;;;;;;2.30;1.35;;;;;;;9.81;100.00;100995.31;5030552;28;20080;-65
2022/12/20 06:50:24;;;;;;;5.22;1.45;;;;;;;9.80;100.00;100998.75;5036520;28;20409;-65
2022/12/20 06:52:49;;;;;;;1.63;1.20;;;;;;;9.80;100.00;100986.69;5045121;28;20029;-65
2022/12/20 06:55:14;;;;;;;2.00;1.27;;;;;;;9.79;100.00;100990.09;5017804;28;20063;-65
2022/12/20 06:57:40;;;;;;;1.65;1.30;;;;;;;9.78;100.00;100990.94;5029791;28;20037;-65
2022/12/20 07:00:07;;;;;;;1.85;1.10;;;;;;;9.80;100.00;100985.81;5023009;28;20073;-65
2022/12/20 07:02:32;;;;;;;2.08;1.40;;;;;;;9.80;100.00;100994.47;5012025;28;20054;-65
2022/12/20 07:04:58;;;;;;;2.15;1.48;;;;;;;9.82;100.00;100992.78;5022824;28;20088;-65
2022/12/20 07:07:23;;;;;;;1.70;1.10;;;;;;;9.82;100.00;100997.97;5010581;28;20038;-65
2022/12/20 07:09:48;;;;;;;2.55;1.25;;;;;;;9.84;100.00;100995.44;5010416;28;20026;-65
2022/12/20 07:12:13;;;;;;;1.25;1.10;;;;;;;9.85;100.00;100992.94;5011050;28;20036;-65
2022/12/20 07:14:39;;;;;;;2.58;1.05;;;;;;;9.84;100.00;100990.25;5022353;28;20100;-65
2022/12/20 07:17:04;;;;;;;2.47;1.40;;;;;;;9.87;100.00;100999.84;5010686;28;20076;-65
2022/12/20 07:19:30;;;;;;;2.47;1.20;;;;;;;9.87;100.00;101000.75;5010449;28;20041;-65
2022/12/20 07:21:55;;;;;;;1.50;1.00;;;;;;;9.87;100.00;101000.75;5011068;28;20040;-65
2022/12/20 07:24:20;;;;;;;2.55;1.15;;;;;;;9.90;100.00;101002.56;5010329;28;20073;-65
2022/12/20 07:26:46;;;;;;;3.20;1.40;;;;;;;9.93;100.00;100994.91;5010891;28;20041;-65
2022/12/20 07:29:12;;;;;;;2.58;1.45;;;;;;;9.95;100.00;100988.97;5025995;28;20386;-65
2022/12/20 07:31:38;;;;;;;1.58;1.15;;;;;;;9.95;100.00;100986.38;5029848;28;20034;-65
2022/12/20 07:34:03;;;;;;;1.73;1.17;;;;;;;9.95;100.00;100998.44;5033504;28;20095;-65
2022/12/20 07:36:28;;;;;;;3.63;1.42;;;;;;;9.97;100.00;101001.97;5029339;28;20061;-65
2022/12/20 07:38:53;;;;;;;1.50;1.05;;;;;;;9.98;100.00;100995.97;5033488;28;20029;-65
2022/12/20 07:41:19;;;;;;;1.75;1.17;;;;;;;9.99;100.00;100999.41;5036321;28;20021;-65
2022/12/20 07:43:45;;;;;;;2.55;1.25;;;;;;;10.01;100.00;101003.84;5024458;28;20478;-65
2022/12/20 07:46:13;;;;;;;2.97;1.05;;;;;;;10.03;100.00;101012.56;5017471;28;20029;-65
2022/12/20 07:48:38;;;;;;;2.70;1.55;;;;;;;10.02;100.00;101005.59;5024241;28;20528;-65
2022/12/20 07:51:11;;;;;;;2.50;1.17;;;;;;;10.02;100.00;101007.31;5021399;28;20519;-65
2022/12/20 07:53:41;;;;;;;2.25;1.13;;;;;;;10.05;100.00;101013.50;5029130;28;20074;-64
2022/12/20 07:56:09;;;;;;;2.78;1.73;;;;;;;10.05;100.00;101010.91;5033218;28;20188;-65
2022/12/20 07:58:37;;;;;;;2.08;1.20;;;;;;;10.06;100.00;101017.84;5029365;28;20037;-64
2022/12/20 08:01:03;;;;;;;2.47;0.90;;;;;;;10.08;100.00;101023.97;5029891;28;20212;-64
2022/12/20 08:03:36;;;;;;;1.95;1.10;;;;;;;10.08;100.00;101021.38;5025400;28;20596;-65
2022/12/20 08:06:03;;;;;;;2.72;0.77;;;;;;;10.07;100.00;101019.59;5010327;28;20136;-65
2022/12/20 08:08:31;;;;;;;1.83;0.90;;;;;;;10.08;100.00;101016.19;5021869;28;20112;-65
2022/12/20 08:10:58;;;;;;;1.75;1.10;;;;;;;10.08;100.00;101017.88;5013542;28;20021;-65
2022/12/20 08:13:23;;;;;;;1.75;1.10;;;;;;;10.06;100.00;101017.84;5017709;28;20044;-65
2022/12/20 08:15:48;;;;;;;1.92;1.25;;;;;;;10.03;100.00;101020.31;5014123;28;20018;-65
2022/12/20 08:18:15;;;;;;;2.90;1.13;;;;;;;9.97;100.00;101014.91;5011762;28;20398;-65
2022/12/20 08:20:40;;;;;;;2.28;1.20;;;;;;;9.94;100.00;101009.63;5009693;28;20018;-65
2022/12/20 08:23:05;;;;;;;3.47;1.58;;;;;;;9.91;100.00;101017.28;5009988;28;20022;-64
2022/12/20 08:25:32;;;;;;;1.50;1.10;;;;;;;9.85;100.00;101018.81;5016042;28;20047;-65
2022/12/20 08:28:00;;;;;;;3.80;1.40;;;;;;;9.83;100.00;101015.28;5020238;28;20044;-65
2022/12/20 08:30:26;;;;;;;3.05;1.42;;;;;;;9.77;100.00;101015.03;5011160;28;20030;-64
2022/12/20 08:32:51;;;;;;;4.82;1.23;;;;;;;9.72;100.00;101019.16;5010355;28;20071;-65
2022/12/20 08:35:16;;;;;;;3.90;1.30;;;;;;;9.69;100.00;101019.94;5011325;28;20474;-65
2022/12/20 08:37:42;;;;;;;5.28;1.70;;;;;;;9.67;100.00;101028.44;5010992;28;20197;-65
2022/12/20 08:40:08;;;;;;;2.53;1.30;;;;;;;9.63;100.00;101022.28;5011948;28;20521;-65
2022/12/20 08:42:33;;;;;;;3.65;1.15;;;;;;;9.59;100.00;101021.25;5030340;28;20493;-65
2022/12/20 08:44:58;;;;;;;2.35;1.30;;;;;;;9.55;100.00;101014.19;5018858;28;20030;-65
2022/12/20 08:47:24;;;;;;;2.83;1.42;;;;;;;9.50;100.00;101010.56;5008035;28;20028;-65
2022/12/20 08:49:49;;;;;;;2.05;1.35;;;;;;;9.47;100.00;101010.44;5009366;28;20453;-65
2022/12/20 08:52:15;;;;;;;2.75;1.50;;;;;;;9.47;100.00;101007.84;5020325;28;20032;-65
2022/12/20 08:54:40;;;;;;;2.60;1.48;;;;;;;9.47;100.00;101010.44;5009029;28;20029;-65
2022/12/20 08:57:05;;;;;;;2.92;1.63;;;;;;;9.41;100.00;101005.03;5007342;28;20052;-65
2022/12/20 08:59:31;;;;;;;3.05;1.40;;;;;;;9.33;100.00;101009.91;5007832;28;20071;-65
2022/12/20 09:01:56;;;;;;;5.65;1.40;;;;;;;9.30;100.00;101002.03;5007916;28;20014;-65
2022/12/20 09:04:22;;;;;;;3.58;1.75;;;;;;;9.25;100.00;101005.31;5007680;28;20036;-65
2022/12/20 09:06:47;;;;;;;1.55;1.45;;;;;;;9.18;100.00;100997.22;5006904;28;20032;-65
2022/12/20 09:09:12;;;;;;;2.85;1.50;;;;;;;9.16;100.00;100998.84;5008103;28;20108;-65
2022/12/20 09:11:38;;;;;;;3.83;1.70;;;;;;;9.10;100.00;100994.34;5008613;28;20040;-65
2022/12/20 09:14:03;;;;;;;3.80;1.83;;;;;;;9.09;100.00;100990.88;5008909;28;20025;-65
2022/12/20 09:16:31;;;;;;;4.13;1.77;;;;;;;9.08;100.00;100986.53;5008553;28;20032;-65
2022/12/20 09:18:58;;;;;;;4.63;2.17;;;;;;;9.07;100.00;100982.16;5021148;28;20083;-65
2022/12/20 09:21:23;;;;;;;4.03;2.20;;;;;;;9.06;100.00;100993.34;5008452;28;20033;-64
2022/12/20 09:23:53;;;;;;;3.17;1.80;;;;;;;9.03;100.00;100989.75;5008935;28;20406;-64
2022/12/20 09:26:20;;;;;;;4.55;1.83;;;;;;;9.03;100.00;100990.59;5008410;28;20045;-65
2022/12/20 09:28:46;;;;;;;4.75;2.50;;;;;;;9.05;100.00;100996.72;5021267;28;20083;-65
2022/12/20 09:31:14;;;;;;;6.30;2.10;;;;;;;9.07;100.00;100981.28;5020867;28;20088;-65
2022/12/20 09:33:41;;;;;;;4.07;1.80;;;;;;;9.10;100.00;100984.88;5007692;28;20537;-65
2022/12/20 09:36:11;;;;;;;4.30;2.08;;;;;;;9.15;100.00;100995.41;5007580;28;20030;-65
2022/12/20 09:38:37;;;;;;;2.90;2.00;;;;;;;9.17;100.00;101000.66;5009313;28;20052;-65
2022/12/20 09:41:05;;;;;;;4.35;1.92;;;;;;;9.19;100.00;100996.41;5008778;28;20226;-65
2022/12/20 09:43:31;;;;;;;3.72;1.70;;;;;;;9.21;100.00;100993.06;5009116;28;20386;-65
2022/12/20 09:45:59;;;;;;;7.15;2.13;;;;;;;9.24;100.00;100984.56;5008480;28;20344;-64
2022/12/20 09:48:34;;;;;;;3.33;1.73;;;;;;;9.28;100.00;100982.97;5022097;28;20025;-65
2022/12/20 09:51:05;;;;;;;2.08;1.63;;;;;;;9.32;100.00;100987.41;5027029;28;20489;-64
2022/12/20 09:53:45;;;;;;;4.07;1.80;;;;;;;9.33;100.00;100982.34;5026983;28;20040;-64
2022/12/20 09:56:26;;;;;;;2.30;1.50;;;;;;;9.33;100.00;100987.50;5026681;28;20500;-64
2022/12/20 09:59:00;;;;;;;5.47;1.93;;;;;;;9.34;100.00;100985.78;5025804;28;20551;-65
2022/12/20 10:01:28;;;;;;;4.05;2.00;;;;;;;9.36;100.00;100986.72;5025624;28;20272;-65
2022/12/20 10:03:56;;;;;;;3.90;1.67;;;;;;;9.38;100.00;100979.91;5026368;28;20032;-65
2022/12/20 10:06:49;;;;;;;4.55;1.70;;;;;;;9.40;100.00;100983.47;5025451;28;20017;-65
2022/12/20 10:09:36;;;;;;;3.03;1.63;;;;;;;9.43;100.00;100982.69;5024194;28;20112;-65
2022/12/20 10:12:28;;;;;;;5.15;1.77;;;;;;;9.46;100.00;100988.00;5026791;28;20471;-65
2022/12/20 10:15:08;;;;;;;4.40;1.70;;;;;;;9.50;100.00;100976.91;5027144;28;20314;-65
2022/12/20 10:17:45;;;;;;;3.25;2.00;;;;;;;9.58;100.00;100975.53;5026427;28;20029;-64
2022/12/20 10:20:35;;;;;;;3.00;1.70;;;;;;;9.61;100.00;100978.22;5026490;28;20440;-64
2022/12/20 10:23:08;;;;;;;4.30;1.50;;;;;;;9.64;100.00;100971.41;5016345;28;20038;-65
2022/12/20 10:25:34;;;;;;;2.47;1.50;;;;;;;9.68;100.00;100968.09;5025828;28;20063;-65
2022/12/20 10:28:01;;;;;;;3.30;2.03;;;;;;;9.71;100.00;100981.16;5026687;28;20026;-65
2022/12/20 10:30:27;;;;;;;2.97;1.92;;;;;;;9.75;100.00;100977.00;5026693;28;20166;-64
2022/12/20 10:32:56;;;;;;;1.42;1.10;;;;;;;9.81;100.00;100979.78;5026104;28;20037;-65
2022/12/20 10:35:30;;;;;;;2.63;1.50;;;;;;;9.84;100.00;100983.38;5024957;28;20091;-65
2022/12/20 10:38:08;;;;;;;2.33;1.48;;;;;;;9.88;100.00;100979.19;5015069;28;20501;-64
2022/12/20 10:40:53;;;;;;;1.30;1.20;;;;;;;9.85;100.00;100977.41;5024670;28;20105;-64
2022/12/20 10:43:21;;;;;;;2.95;1.83;;;;;;;9.81;100.00;100970.34;5025357;28;20152;-65
2022/12/20 10:46:15;;;;;;;2.78;1.40;;;;;;;9.80;100.00;100968.59;5025313;28;20033;-65
2022/12/20 10:48:42;;;;;;;1.90;1.70;;;;;;;9.75;100.00;100966.63;5021891;28;20041;-64
2022/12/20 10:51:07;;;;;;;2.78;2.00;;;;;;;9.69;100.00;100959.53;5013262;28;20050;-65
2022/12/20 10:53:33;;;;;;;6.00;2.03;;;;;;;9.68;100.00;100953.47;5013720;28;20034;-65
2022/12/20 10:56:28;;;;;;;2.35;1.88;;;;;;;9.63;100.00;100955.00;5026465;28;20117;-65
2022/12/20 10:59:27;;;;;;;4.05;1.80;;;;;;;9.61;100.00;100952.34;5027206;28;20581;-65
2022/12/20 11:01:52;;;;;;;4.03;2.03;;;;;;;9.59;100.00;100954.00;5018893;28;20397;-65
2022/12/20 11:04:29;;;;;;;2.17;1.98;;;;;;;9.54;100.00;100947.78;5008140;28;20025;-65
2022/12/20 11:06:54;;;;;;;3.70;2.05;;;;;;;9.53;100.00;100955.47;5007906;28;20525;-65
2022/12/20 11:09:22;;;;;;;3.30;2.25;;;;;;;9.50;100.00;100956.22;5008610;28;20041;-65
2022/12/20 11:12:15;;;;;;;3.47;2.70;;;;;;;9.52;100.00;100948.53;5007787;28;20108;-65
2022/12/20 11:14:42;;;;;;;5.65;2.85;;;;;;;9.47;100.00;100948.34;5006318;28;20501;-65
2022/12/20 11:17:13;;;;;;;2.35;2.15;;;;;;;9.47;100.00;100943.19;5009022;28;20076;-65
2022/12/20 11:19:52;;;;;;;4.38;2.55;;;;;;;9.45;100.00;100940.53;5008270;28;20030;-65
2022/12/20 11:22:25;;;;;;;3.10;2.60;;;;;;;9.43;100.00;100938.69;5010402;28;20014;-65
2022/12/20 11:24:56;;;;;;;4.65;3.00;;;;;;;9.43;100.00;100937.00;5011234;28;20061;-65
2022/12/20 11:27:34;;;;;;;4.07;2.67;;;;;;;9.43;100.00;100936.13;5011892;28;20056;-65
2022/12/20 11:30:18;;;;;;;4.90;2.90;;;;;;;9.41;100.00;100940.38;5029781;28;20021;-65
2022/12/20 11:33:12;;;;;;;5.28;2.55;;;;;;;9.42;100.00;100937.84;5029353;28;20036;-65
2022/12/20 11:36:01;;;;;;;4.72;2.53;;;;;;;9.36;100.00;100935.91;5026589;28;20468;-65
2022/12/20 11:38:45;;;;;;;4.22;2.80;;;;;;;9.37;100.00;100937.66;5022747;28;20025;-65